sensor_id;sensor_type;location;lat;lon;timestamp;P1;durP1;ratioP1;P2;durP2;ratioP2
68097;SDS011;54886;47.036;15.466;2022-11-15T00:01:38;64.97;;;31.80;;
68097;SDS011;54886;47.036;15.466;2022-11-15T00:04:04;58.80;;;30.00;;
68097;SDS011;54886;47.036;15.466;2022-11-15T00:06:30;67.28;;;31.33;;
68097;SDS011;54886;47.036;15.466;2022-11-15T00:08:57;66.63;;;31.52;;
68097;SDS011;54886;47.036;15.466;2022-11-15T00:11:23;61.65;;;31.08;;
68097;SDS011;54886;47.036;15.466;2022-11-15T00:13:49;60.63;;;31.33;;
68097;SDS011;54886;47.036;15.466;2022-11-15T00:16:14;66.85;;;30.65;;
68097;SDS011;54886;47.036;15.466;2022-11-15T00:18:40;67.00;;;31.58;;
68097;SDS011;54886;47.036;15.466;2022-11-15T00:21:06;64.50;;;30.80;;
68097;SDS011;54886;47.036;15.466;2022-11-15T00:23:34;61.63;;;29.40;;
68097;SDS011;54886;47.036;15.466;2022-11-15T00:25:59;67.72;;;30.83;;
68097;SDS011;54886;47.036;15.466;2022-11-15T00:28:25;63.65;;;31.15;;
68097;SDS011;54886;47.036;15.466;2022-11-15T00:30:51;65.32;;;30.27;;
68097;SDS011;54886;47.036;15.466;2022-11-15T00:33:17;63.70;;;31.15;;
68097;SDS011;54886;47.036;15.466;2022-11-15T00:35:43;64.65;;;30.08;;
68097;SDS011;54886;47.036;15.466;2022-11-15T00:38:08;67.88;;;32.33;;
68097;SDS011;54886;47.036;15.466;2022-11-15T00:40:33;61.08;;;29.95;;
68097;SDS011;54886;47.036;15.466;2022-11-15T00:42:59;65.13;;;30.70;;
68097;SDS011;54886;47.036;15.466;2022-11-15T00:45:25;61.67;;;30.55;;
68097;SDS011;54886;47.036;15.466;2022-11-15T00:47:50;64.65;;;30.77;;
68097;SDS011;54886;47.036;15.466;2022-11-15T00:50:16;64.45;;;30.92;;
68097;SDS011;54886;47.036;15.466;2022-11-15T00:52:41;64.00;;;30.83;;
68097;SDS011;54886;47.036;15.466;2022-11-15T00:55:08;69.47;;;32.38;;
68097;SDS011;54886;47.036;15.466;2022-11-15T00:57:39;67.82;;;31.73;;
68097;SDS011;54886;47.036;15.466;2022-11-15T01:00:05;70.07;;;31.20;;
68097;SDS011;54886;47.036;15.466;2022-11-15T01:02:31;70.63;;;33.05;;
68097;SDS011;54886;47.036;15.466;2022-11-15T01:04:56;67.20;;;32.70;;
68097;SDS011;54886;47.036;15.466;2022-11-15T01:07:21;71.95;;;32.08;;
68097;SDS011;54886;47.036;15.466;2022-11-15T01:09:47;78.15;;;33.05;;
68097;SDS011;54886;47.036;15.466;2022-11-15T01:12:12;72.05;;;33.15;;
68097;SDS011;54886;47.036;15.466;2022-11-15T01:14:37;69.82;;;31.42;;
68097;SDS011;54886;47.036;15.466;2022-11-15T01:17:03;67.00;;;31.13;;
68097;SDS011;54886;47.036;15.466;2022-11-15T01:19:28;70.80;;;33.47;;
68097;SDS011;54886;47.036;15.466;2022-11-15T01:21:54;79.68;;;33.70;;
68097;SDS011;54886;47.036;15.466;2022-11-15T01:24:19;72.03;;;32.45;;
68097;SDS011;54886;47.036;15.466;2022-11-15T01:26:44;69.60;;;31.98;;
68097;SDS011;54886;47.036;15.466;2022-11-15T01:29:10;71.80;;;32.40;;
68097;SDS011;54886;47.036;15.466;2022-11-15T01:31:35;72.43;;;33.50;;
68097;SDS011;54886;47.036;15.466;2022-11-15T01:34:01;69.15;;;31.52;;
68097;SDS011;54886;47.036;15.466;2022-11-15T01:36:26;74.43;;;33.70;;
68097;SDS011;54886;47.036;15.466;2022-11-15T01:38:55;70.65;;;32.42;;
68097;SDS011;54886;47.036;15.466;2022-11-15T01:41:23;79.07;;;34.85;;
68097;SDS011;54886;47.036;15.466;2022-11-15T01:43:55;72.40;;;33.20;;
68097;SDS011;54886;47.036;15.466;2022-11-15T01:46:31;82.38;;;34.80;;
68097;SDS011;54886;47.036;15.466;2022-11-15T01:49:04;75.05;;;34.22;;
68097;SDS011;54886;47.036;15.466;2022-11-15T01:51:36;79.55;;;34.00;;
68097;SDS011;54886;47.036;15.466;2022-11-15T01:54:06;81.85;;;33.13;;
68097;SDS011;54886;47.036;15.466;2022-11-15T01:56:38;81.65;;;35.97;;
68097;SDS011;54886;47.036;15.466;2022-11-15T01:59:10;78.47;;;33.72;;
68097;SDS011;54886;47.036;15.466;2022-11-15T02:01:36;74.28;;;32.13;;
68097;SDS011;54886;47.036;15.466;2022-11-15T02:04:13;77.65;;;33.45;;
68097;SDS011;54886;47.036;15.466;2022-11-15T02:06:42;76.40;;;35.30;;
68097;SDS011;54886;47.036;15.466;2022-11-15T02:09:08;75.15;;;31.30;;
68097;SDS011;54886;47.036;15.466;2022-11-15T02:11:34;71.57;;;33.05;;
68097;SDS011;54886;47.036;15.466;2022-11-15T02:14:00;79.55;;;33.80;;
68097;SDS011;54886;47.036;15.466;2022-11-15T02:21:47;69.10;;;32.22;;
68097;SDS011;54886;47.036;15.466;2022-11-15T02:24:30;71.05;;;33.33;;
68097;SDS011;54886;47.036;15.466;2022-11-15T02:30:04;62.97;;;30.40;;
68097;SDS011;54886;47.036;15.466;2022-11-15T02:32:52;65.15;;;30.27;;
68097;SDS011;54886;47.036;15.466;2022-11-15T02:35:26;63.83;;;29.73;;
68097;SDS011;54886;47.036;15.466;2022-11-15T02:37:57;61.15;;;28.75;;
68097;SDS011;54886;47.036;15.466;2022-11-15T02:43:17;66.43;;;31.45;;
68097;SDS011;54886;47.036;15.466;2022-11-15T02:49:26;64.57;;;30.17;;
68097;SDS011;54886;47.036;15.466;2022-11-15T02:51:54;69.28;;;29.83;;
68097;SDS011;54886;47.036;15.466;2022-11-15T02:54:24;65.28;;;30.25;;
68097;SDS011;54886;47.036;15.466;2022-11-15T02:56:56;62.75;;;28.33;;
68097;SDS011;54886;47.036;15.466;2022-11-15T03:05:04;62.83;;;30.05;;
68097;SDS011;54886;47.036;15.466;2022-11-15T03:16:09;52.92;;;26.33;;
68097;SDS011;54886;47.036;15.466;2022-11-15T03:18:49;57.97;;;28.27;;
68097;SDS011;54886;47.036;15.466;2022-11-15T03:21:19;64.07;;;28.95;;
68097;SDS011;54886;47.036;15.466;2022-11-15T03:23:46;59.75;;;30.00;;
68097;SDS011;54886;47.036;15.466;2022-11-15T03:26:15;67.57;;;31.10;;
68097;SDS011;54886;47.036;15.466;2022-11-15T03:28:52;66.95;;;31.27;;
68097;SDS011;54886;47.036;15.466;2022-11-15T03:31:21;66.70;;;29.65;;
68097;SDS011;54886;47.036;15.466;2022-11-15T03:34:09;67.90;;;29.92;;
68097;SDS011;54886;47.036;15.466;2022-11-15T03:36:38;61.17;;;28.60;;
68097;SDS011;54886;47.036;15.466;2022-11-15T03:39:05;71.10;;;30.95;;
68097;SDS011;54886;47.036;15.466;2022-11-15T03:41:37;65.10;;;29.77;;
68097;SDS011;54886;47.036;15.466;2022-11-15T03:49:29;69.07;;;30.52;;
68097;SDS011;54886;47.036;15.466;2022-11-15T03:51:59;62.65;;;28.92;;
68097;SDS011;54886;47.036;15.466;2022-11-15T03:54:26;63.45;;;30.40;;
68097;SDS011;54886;47.036;15.466;2022-11-15T03:56:52;70.80;;;30.48;;
68097;SDS011;54886;47.036;15.466;2022-11-15T03:59:17;68.50;;;30.55;;
68097;SDS011;54886;47.036;15.466;2022-11-15T04:01:42;62.90;;;30.60;;
68097;SDS011;54886;47.036;15.466;2022-11-15T04:04:08;66.20;;;31.08;;
68097;SDS011;54886;47.036;15.466;2022-11-15T04:06:34;63.53;;;29.25;;
68097;SDS011;54886;47.036;15.466;2022-11-15T04:09:00;64.30;;;28.65;;
68097;SDS011;54886;47.036;15.466;2022-11-15T04:11:25;69.85;;;30.27;;
68097;SDS011;54886;47.036;15.466;2022-11-15T04:13:50;65.18;;;29.95;;
68097;SDS011;54886;47.036;15.466;2022-11-15T04:16:16;60.22;;;28.27;;
68097;SDS011;54886;47.036;15.466;2022-11-15T04:18:41;59.30;;;27.60;;
68097;SDS011;54886;47.036;15.466;2022-11-15T04:21:07;67.40;;;31.05;;
68097;SDS011;54886;47.036;15.466;2022-11-15T04:23:51;64.78;;;29.98;;
68097;SDS011;54886;47.036;15.466;2022-11-15T04:26:21;73.22;;;32.13;;
68097;SDS011;54886;47.036;15.466;2022-11-15T04:28:47;65.15;;;29.67;;
68097;SDS011;54886;47.036;15.466;2022-11-15T04:31:31;73.15;;;31.27;;
68097;SDS011;54886;47.036;15.466;2022-11-15T04:33:57;73.07;;;32.08;;
68097;SDS011;54886;47.036;15.466;2022-11-15T04:36:22;67.82;;;30.73;;
68097;SDS011;54886;47.036;15.466;2022-11-15T04:39:07;75.40;;;32.67;;
68097;SDS011;54886;47.036;15.466;2022-11-15T04:41:32;73.75;;;30.75;;
68097;SDS011;54886;47.036;15.466;2022-11-15T04:43:58;71.03;;;30.33;;
68097;SDS011;54886;47.036;15.466;2022-11-15T04:46:24;73.10;;;30.20;;
68097;SDS011;54886;47.036;15.466;2022-11-15T04:48:50;67.28;;;30.55;;
68097;SDS011;54886;47.036;15.466;2022-11-15T04:51:16;76.35;;;31.20;;
68097;SDS011;54886;47.036;15.466;2022-11-15T04:53:41;67.90;;;30.67;;
68097;SDS011;54886;47.036;15.466;2022-11-15T04:56:07;77.47;;;31.63;;
68097;SDS011;54886;47.036;15.466;2022-11-15T04:58:33;72.85;;;31.58;;
68097;SDS011;54886;47.036;15.466;2022-11-15T05:01:06;69.85;;;30.85;;
68097;SDS011;54886;47.036;15.466;2022-11-15T05:03:35;80.68;;;32.97;;
68097;SDS011;54886;47.036;15.466;2022-11-15T05:06:19;77.95;;;32.85;;
68097;SDS011;54886;47.036;15.466;2022-11-15T05:08:44;77.00;;;33.08;;
68097;SDS011;54886;47.036;15.466;2022-11-15T05:11:10;80.13;;;33.15;;
68097;SDS011;54886;47.036;15.466;2022-11-15T05:13:35;78.07;;;32.95;;
68097;SDS011;54886;47.036;15.466;2022-11-15T05:16:01;80.53;;;32.75;;
68097;SDS011;54886;47.036;15.466;2022-11-15T05:18:26;81.00;;;34.53;;
68097;SDS011;54886;47.036;15.466;2022-11-15T05:20:51;82.05;;;32.60;;
68097;SDS011;54886;47.036;15.466;2022-11-15T05:23:17;76.05;;;31.77;;
68097;SDS011;54886;47.036;15.466;2022-11-15T05:25:42;83.10;;;33.78;;
68097;SDS011;54886;47.036;15.466;2022-11-15T05:28:08;79.82;;;32.30;;
68097;SDS011;54886;47.036;15.466;2022-11-15T05:30:33;80.68;;;33.00;;
68097;SDS011;54886;47.036;15.466;2022-11-15T05:32:59;79.32;;;32.35;;
68097;SDS011;54886;47.036;15.466;2022-11-15T05:35:35;77.38;;;32.00;;
68097;SDS011;54886;47.036;15.466;2022-11-15T05:38:04;78.32;;;31.45;;
68097;SDS011;54886;47.036;15.466;2022-11-15T05:40:30;78.20;;;32.17;;
68097;SDS011;54886;47.036;15.466;2022-11-15T05:42:57;82.03;;;31.95;;
68097;SDS011;54886;47.036;15.466;2022-11-15T05:45:25;79.47;;;34.22;;
68097;SDS011;54886;47.036;15.466;2022-11-15T05:47:51;78.43;;;32.55;;
68097;SDS011;54886;47.036;15.466;2022-11-15T05:50:18;81.50;;;32.58;;
68097;SDS011;54886;47.036;15.466;2022-11-15T05:52:44;70.70;;;31.30;;
68097;SDS011;54886;47.036;15.466;2022-11-15T05:55:11;83.60;;;32.70;;
68097;SDS011;54886;47.036;15.466;2022-11-15T05:57:37;70.65;;;30.15;;
68097;SDS011;54886;47.036;15.466;2022-11-15T06:00:03;69.43;;;31.45;;
68097;SDS011;54886;47.036;15.466;2022-11-15T06:02:29;76.70;;;32.15;;
68097;SDS011;54886;47.036;15.466;2022-11-15T06:04:55;69.07;;;29.40;;
68097;SDS011;54886;47.036;15.466;2022-11-15T06:07:20;67.45;;;30.60;;
68097;SDS011;54886;47.036;15.466;2022-11-15T06:09:46;68.65;;;30.67;;
68097;SDS011;54886;47.036;15.466;2022-11-15T06:12:11;66.18;;;29.10;;
68097;SDS011;54886;47.036;15.466;2022-11-15T06:14:37;61.72;;;28.13;;
68097;SDS011;54886;47.036;15.466;2022-11-15T06:17:02;58.58;;;27.88;;
68097;SDS011;54886;47.036;15.466;2022-11-15T06:19:28;58.83;;;27.42;;
68097;SDS011;54886;47.036;15.466;2022-11-15T06:21:57;56.08;;;26.77;;
68097;SDS011;54886;47.036;15.466;2022-11-15T06:24:23;56.58;;;26.38;;
68097;SDS011;54886;47.036;15.466;2022-11-15T06:26:49;55.50;;;24.88;;
68097;SDS011;54886;47.036;15.466;2022-11-15T06:29:14;53.15;;;25.85;;
68097;SDS011;54886;47.036;15.466;2022-11-15T06:31:40;51.63;;;25.67;;
68097;SDS011;54886;47.036;15.466;2022-11-15T06:34:05;49.15;;;24.88;;
68097;SDS011;54886;47.036;15.466;2022-11-15T06:36:30;52.30;;;25.15;;
68097;SDS011;54886;47.036;15.466;2022-11-15T06:38:56;53.88;;;25.17;;
68097;SDS011;54886;47.036;15.466;2022-11-15T06:41:21;50.22;;;25.77;;
68097;SDS011;54886;47.036;15.466;2022-11-15T06:43:47;51.42;;;25.50;;
68097;SDS011;54886;47.036;15.466;2022-11-15T06:46:12;55.47;;;24.63;;
68097;SDS011;54886;47.036;15.466;2022-11-15T06:48:38;52.05;;;25.67;;
68097;SDS011;54886;47.036;15.466;2022-11-15T06:51:04;52.15;;;25.17;;
68097;SDS011;54886;47.036;15.466;2022-11-15T06:53:30;57.10;;;25.75;;
68097;SDS011;54886;47.036;15.466;2022-11-15T06:56:03;54.60;;;25.67;;
68097;SDS011;54886;47.036;15.466;2022-11-15T06:58:30;50.88;;;25.38;;
68097;SDS011;54886;47.036;15.466;2022-11-15T07:01:03;50.25;;;24.40;;
68097;SDS011;54886;47.036;15.466;2022-11-15T07:03:29;51.40;;;25.38;;
68097;SDS011;54886;47.036;15.466;2022-11-15T07:05:56;52.28;;;25.23;;
68097;SDS011;54886;47.036;15.466;2022-11-15T07:08:23;51.87;;;25.97;;
68097;SDS011;54886;47.036;15.466;2022-11-15T07:10:51;53.42;;;25.05;;
68097;SDS011;54886;47.036;15.466;2022-11-15T07:13:17;54.55;;;25.45;;
68097;SDS011;54886;47.036;15.466;2022-11-15T07:15:42;52.70;;;24.48;;
68097;SDS011;54886;47.036;15.466;2022-11-15T07:18:08;53.28;;;25.98;;
68097;SDS011;54886;47.036;15.466;2022-11-15T07:20:33;48.28;;;23.85;;
68097;SDS011;54886;47.036;15.466;2022-11-15T07:22:59;51.72;;;25.10;;
68097;SDS011;54886;47.036;15.466;2022-11-15T07:25:28;53.83;;;25.65;;
68097;SDS011;54886;47.036;15.466;2022-11-15T07:27:54;53.25;;;24.85;;
68097;SDS011;54886;47.036;15.466;2022-11-15T07:30:21;53.95;;;25.45;;
68097;SDS011;54886;47.036;15.466;2022-11-15T07:32:46;56.65;;;25.67;;
68097;SDS011;54886;47.036;15.466;2022-11-15T07:35:11;57.95;;;26.40;;
68097;SDS011;54886;47.036;15.466;2022-11-15T07:37:37;53.15;;;24.40;;
68097;SDS011;54886;47.036;15.466;2022-11-15T07:40:02;58.17;;;25.10;;
68097;SDS011;54886;47.036;15.466;2022-11-15T07:42:30;55.22;;;25.52;;
68097;SDS011;54886;47.036;15.466;2022-11-15T07:45:14;55.78;;;26.00;;
68097;SDS011;54886;47.036;15.466;2022-11-15T07:47:40;59.67;;;26.70;;
68097;SDS011;54886;47.036;15.466;2022-11-15T07:50:05;53.75;;;26.13;;
68097;SDS011;54886;47.036;15.466;2022-11-15T07:52:31;58.38;;;26.63;;
68097;SDS011;54886;47.036;15.466;2022-11-15T07:54:56;53.65;;;25.15;;
68097;SDS011;54886;47.036;15.466;2022-11-15T07:57:21;64.18;;;27.77;;
68097;SDS011;54886;47.036;15.466;2022-11-15T07:59:47;59.38;;;27.70;;
68097;SDS011;54886;47.036;15.466;2022-11-15T08:02:12;59.47;;;26.70;;
68097;SDS011;54886;47.036;15.466;2022-11-15T08:04:38;59.50;;;27.10;;
68097;SDS011;54886;47.036;15.466;2022-11-15T08:07:03;60.08;;;26.73;;
68097;SDS011;54886;47.036;15.466;2022-11-15T08:09:29;64.43;;;27.40;;
68097;SDS011;54886;47.036;15.466;2022-11-15T08:11:54;60.55;;;28.40;;
68097;SDS011;54886;47.036;15.466;2022-11-15T08:14:19;56.88;;;26.55;;
68097;SDS011;54886;47.036;15.466;2022-11-15T08:16:46;61.20;;;27.35;;
68097;SDS011;54886;47.036;15.466;2022-11-15T08:19:12;60.58;;;27.27;;
68097;SDS011;54886;47.036;15.466;2022-11-15T08:21:37;63.53;;;28.42;;
68097;SDS011;54886;47.036;15.466;2022-11-15T08:24:03;64.35;;;28.15;;
68097;SDS011;54886;47.036;15.466;2022-11-15T08:26:28;64.78;;;27.90;;
68097;SDS011;54886;47.036;15.466;2022-11-15T08:28:55;64.30;;;28.38;;
68097;SDS011;54886;47.036;15.466;2022-11-15T08:31:20;67.82;;;27.95;;
68097;SDS011;54886;47.036;15.466;2022-11-15T08:33:46;64.40;;;28.35;;
68097;SDS011;54886;47.036;15.466;2022-11-15T08:36:12;66.07;;;28.70;;
68097;SDS011;54886;47.036;15.466;2022-11-15T08:38:40;67.53;;;28.77;;
68097;SDS011;54886;47.036;15.466;2022-11-15T08:41:05;66.97;;;28.77;;
68097;SDS011;54886;47.036;15.466;2022-11-15T08:43:31;64.25;;;28.08;;
68097;SDS011;54886;47.036;15.466;2022-11-15T08:45:57;67.85;;;28.50;;
68097;SDS011;54886;47.036;15.466;2022-11-15T08:48:23;74.38;;;29.85;;
68097;SDS011;54886;47.036;15.466;2022-11-15T08:50:48;67.07;;;28.23;;
68097;SDS011;54886;47.036;15.466;2022-11-15T08:53:14;71.88;;;30.10;;
68097;SDS011;54886;47.036;15.466;2022-11-15T08:55:40;69.85;;;29.63;;
68097;SDS011;54886;47.036;15.466;2022-11-15T08:58:06;67.93;;;28.90;;
68097;SDS011;54886;47.036;15.466;2022-11-15T09:00:32;73.28;;;30.25;;
68097;SDS011;54886;47.036;15.466;2022-11-15T09:02:57;70.43;;;30.23;;
68097;SDS011;54886;47.036;15.466;2022-11-15T09:05:24;79.13;;;32.17;;
68097;SDS011;54886;47.036;15.466;2022-11-15T09:07:53;70.63;;;30.25;;
68097;SDS011;54886;47.036;15.466;2022-11-15T09:10:19;73.03;;;29.05;;
68097;SDS011;54886;47.036;15.466;2022-11-15T09:12:45;70.93;;;30.75;;
68097;SDS011;54886;47.036;15.466;2022-11-15T09:15:13;78.40;;;31.30;;
68097;SDS011;54886;47.036;15.466;2022-11-15T09:17:40;68.57;;;29.55;;
68097;SDS011;54886;47.036;15.466;2022-11-15T09:20:05;70.20;;;29.45;;
68097;SDS011;54886;47.036;15.466;2022-11-15T09:22:31;78.38;;;31.08;;
68097;SDS011;54886;47.036;15.466;2022-11-15T09:24:56;67.72;;;30.10;;
68097;SDS011;54886;47.036;15.466;2022-11-15T09:27:22;67.25;;;28.67;;
68097;SDS011;54886;47.036;15.466;2022-11-15T09:29:47;70.22;;;29.85;;
68097;SDS011;54886;47.036;15.466;2022-11-15T09:32:13;70.85;;;30.15;;
68097;SDS011;54886;47.036;15.466;2022-11-15T09:34:38;72.25;;;29.00;;
68097;SDS011;54886;47.036;15.466;2022-11-15T09:37:03;66.95;;;28.98;;
68097;SDS011;54886;47.036;15.466;2022-11-15T09:39:29;64.13;;;27.73;;
68097;SDS011;54886;47.036;15.466;2022-11-15T09:47:34;63.35;;;28.42;;
68097;SDS011;54886;47.036;15.466;2022-11-15T09:50:12;64.93;;;27.20;;
68097;SDS011;54886;47.036;15.466;2022-11-15T09:52:43;63.90;;;29.13;;
68097;SDS011;54886;47.036;15.466;2022-11-15T09:55:10;63.88;;;28.30;;
68097;SDS011;54886;47.036;15.466;2022-11-15T09:57:57;66.80;;;27.42;;
68097;SDS011;54886;47.036;15.466;2022-11-15T10:00:43;62.65;;;26.98;;
68097;SDS011;54886;47.036;15.466;2022-11-15T10:03:18;62.03;;;26.52;;
68097;SDS011;54886;47.036;15.466;2022-11-15T10:05:50;59.92;;;27.52;;
68097;SDS011;54886;47.036;15.466;2022-11-15T10:08:31;58.38;;;26.63;;
68097;SDS011;54886;47.036;15.466;2022-11-15T10:11:00;55.95;;;26.27;;
68097;SDS011;54886;47.036;15.466;2022-11-15T10:13:29;56.75;;;26.33;;
68097;SDS011;54886;47.036;15.466;2022-11-15T10:21:16;61.47;;;28.10;;
68097;SDS011;54886;47.036;15.466;2022-11-15T10:23:44;56.65;;;26.27;;
68097;SDS011;54886;47.036;15.466;2022-11-15T10:26:15;57.33;;;26.90;;
68097;SDS011;54886;47.036;15.466;2022-11-15T10:28:41;60.58;;;28.27;;
68097;SDS011;54886;47.036;15.466;2022-11-15T10:31:24;61.88;;;27.30;;
68097;SDS011;54886;47.036;15.466;2022-11-15T10:33:58;53.50;;;25.25;;
68097;SDS011;54886;47.036;15.466;2022-11-15T10:36:37;57.50;;;26.08;;
68097;SDS011;54886;47.036;15.466;2022-11-15T10:39:02;58.65;;;26.25;;
68097;SDS011;54886;47.036;15.466;2022-11-15T10:46:34;48.03;;;23.30;;
68097;SDS011;54886;47.036;15.466;2022-11-15T10:52:26;41.40;;;21.83;;
68097;SDS011;54886;47.036;15.466;2022-11-15T10:57:30;44.50;;;22.73;;
68097;SDS011;54886;47.036;15.466;2022-11-15T11:00:26;43.95;;;22.63;;
68097;SDS011;54886;47.036;15.466;2022-11-15T11:08:39;46.63;;;23.70;;
68097;SDS011;54886;47.036;15.466;2022-11-15T11:10:56;43.45;;;22.02;;
68097;SDS011;54886;47.036;15.466;2022-11-15T11:13:32;41.13;;;21.73;;
68097;SDS011;54886;47.036;15.466;2022-11-15T11:24:32;41.33;;;21.27;;
68097;SDS011;54886;47.036;15.466;2022-11-15T11:32:28;37.97;;;21.02;;
68097;SDS011;54886;47.036;15.466;2022-11-15T11:37:52;36.00;;;19.05;;
68097;SDS011;54886;47.036;15.466;2022-11-15T11:49:09;38.85;;;20.10;;
68097;SDS011;54886;47.036;15.466;2022-11-15T11:51:45;35.75;;;19.75;;
68097;SDS011;54886;47.036;15.466;2022-11-15T11:54:12;40.60;;;20.33;;
68097;SDS011;54886;47.036;15.466;2022-11-15T11:56:44;37.22;;;20.00;;
68097;SDS011;54886;47.036;15.466;2022-11-15T12:01:56;36.92;;;19.70;;
68097;SDS011;54886;47.036;15.466;2022-11-15T12:04:29;34.60;;;19.08;;
68097;SDS011;54886;47.036;15.466;2022-11-15T12:09:33;36.80;;;19.17;;
68097;SDS011;54886;47.036;15.466;2022-11-15T12:12:25;34.08;;;18.70;;
68097;SDS011;54886;47.036;15.466;2022-11-15T12:14:54;35.58;;;18.77;;
68097;SDS011;54886;47.036;15.466;2022-11-15T12:17:26;34.35;;;18.92;;
68097;SDS011;54886;47.036;15.466;2022-11-15T12:19:57;36.00;;;19.58;;
68097;SDS011;54886;47.036;15.466;2022-11-15T12:22:26;37.67;;;19.70;;
68097;SDS011;54886;47.036;15.466;2022-11-15T12:25:03;35.65;;;18.27;;
68097;SDS011;54886;47.036;15.466;2022-11-15T12:27:42;36.10;;;19.15;;
68097;SDS011;54886;47.036;15.466;2022-11-15T12:30:15;32.63;;;18.75;;
68097;SDS011;54886;47.036;15.466;2022-11-15T12:32:54;34.30;;;18.48;;
68097;SDS011;54886;47.036;15.466;2022-11-15T12:35:39;34.40;;;19.08;;
68097;SDS011;54886;47.036;15.466;2022-11-15T12:38:09;35.53;;;19.10;;
68097;SDS011;54886;47.036;15.466;2022-11-15T12:40:37;31.17;;;17.77;;
68097;SDS011;54886;47.036;15.466;2022-11-15T12:45:39;34.85;;;18.77;;
68097;SDS011;54886;47.036;15.466;2022-11-15T12:50:53;30.95;;;17.02;;
68097;SDS011;54886;47.036;15.466;2022-11-15T13:12:09;32.25;;;17.17;;
68097;SDS011;54886;47.036;15.466;2022-11-15T13:19:46;30.52;;;17.25;;
68097;SDS011;54886;47.036;15.466;2022-11-15T13:24:57;25.42;;;15.02;;
68097;SDS011;54886;47.036;15.466;2022-11-15T13:27:23;25.30;;;14.93;;
68097;SDS011;54886;47.036;15.466;2022-11-15T13:29:49;24.88;;;14.20;;
68097;SDS011;54886;47.036;15.466;2022-11-15T13:32:15;23.83;;;13.88;;
68097;SDS011;54886;47.036;15.466;2022-11-15T13:34:45;23.52;;;13.90;;
68097;SDS011;54886;47.036;15.466;2022-11-15T13:39:44;26.35;;;14.38;;
68097;SDS011;54886;47.036;15.466;2022-11-15T13:42:14;25.55;;;15.27;;
68097;SDS011;54886;47.036;15.466;2022-11-15T13:44:40;24.73;;;15.02;;
68097;SDS011;54886;47.036;15.466;2022-11-15T13:47:20;23.55;;;14.38;;
68097;SDS011;54886;47.036;15.466;2022-11-15T13:49:45;23.98;;;15.18;;
68097;SDS011;54886;47.036;15.466;2022-11-15T13:52:14;21.92;;;14.63;;
68097;SDS011;54886;47.036;15.466;2022-11-15T13:54:46;24.60;;;14.95;;
68097;SDS011;54886;47.036;15.466;2022-11-15T13:57:22;24.13;;;14.57;;
68097;SDS011;54886;47.036;15.466;2022-11-15T13:59:55;24.92;;;15.25;;
68097;SDS011;54886;47.036;15.466;2022-11-15T14:02:28;23.98;;;14.38;;
68097;SDS011;54886;47.036;15.466;2022-11-15T14:05:15;22.10;;;14.52;;
68097;SDS011;54886;47.036;15.466;2022-11-15T14:10:37;24.50;;;14.35;;
68097;SDS011;54886;47.036;15.466;2022-11-15T14:13:04;24.25;;;14.88;;
68097;SDS011;54886;47.036;15.466;2022-11-15T14:15:51;23.55;;;13.93;;
68097;SDS011;54886;47.036;15.466;2022-11-15T14:21:07;24.40;;;14.80;;
68097;SDS011;54886;47.036;15.466;2022-11-15T14:23:33;25.35;;;15.68;;
68097;SDS011;54886;47.036;15.466;2022-11-15T14:25:59;23.52;;;14.70;;
68097;SDS011;54886;47.036;15.466;2022-11-15T14:30:52;22.90;;;14.43;;
68097;SDS011;54886;47.036;15.466;2022-11-15T14:33:32;24.33;;;14.55;;
68097;SDS011;54886;47.036;15.466;2022-11-15T14:36:32;24.13;;;13.45;;
68097;SDS011;54886;47.036;15.466;2022-11-15T14:38:51;24.10;;;14.23;;
68097;SDS011;54886;47.036;15.466;2022-11-15T14:41:20;22.63;;;13.63;;
68097;SDS011;54886;47.036;15.466;2022-11-15T14:43:47;22.42;;;13.85;;
68097;SDS011;54886;47.036;15.466;2022-11-15T14:46:13;24.10;;;14.52;;
68097;SDS011;54886;47.036;15.466;2022-11-15T14:48:38;23.58;;;13.82;;
68097;SDS011;54886;47.036;15.466;2022-11-15T14:51:08;23.50;;;14.00;;
68097;SDS011;54886;47.036;15.466;2022-11-15T14:53:36;23.60;;;14.05;;
68097;SDS011;54886;47.036;15.466;2022-11-15T14:56:02;24.55;;;15.15;;
68097;SDS011;54886;47.036;15.466;2022-11-15T14:58:27;25.75;;;15.50;;
68097;SDS011;54886;47.036;15.466;2022-11-15T15:00:52;23.15;;;14.25;;
68097;SDS011;54886;47.036;15.466;2022-11-15T15:03:18;23.13;;;14.13;;
68097;SDS011;54886;47.036;15.466;2022-11-15T15:05:43;24.42;;;14.10;;
68097;SDS011;54886;47.036;15.466;2022-11-15T15:08:09;25.60;;;15.15;;
68097;SDS011;54886;47.036;15.466;2022-11-15T15:10:37;23.90;;;14.40;;
68097;SDS011;54886;47.036;15.466;2022-11-15T15:13:04;24.38;;;14.48;;
68097;SDS011;54886;47.036;15.466;2022-11-15T15:15:34;24.50;;;14.07;;
68097;SDS011;54886;47.036;15.466;2022-11-15T15:18:01;24.90;;;14.50;;
68097;SDS011;54886;47.036;15.466;2022-11-15T15:20:27;25.23;;;15.40;;
68097;SDS011;54886;47.036;15.466;2022-11-15T15:22:53;25.80;;;15.23;;
68097;SDS011;54886;47.036;15.466;2022-11-15T15:27:51;27.20;;;15.43;;
68097;SDS011;54886;47.036;15.466;2022-11-15T15:30:17;23.15;;;14.75;;
68097;SDS011;54886;47.036;15.466;2022-11-15T15:32:43;25.27;;;15.63;;
68097;SDS011;54886;47.036;15.466;2022-11-15T15:35:11;24.95;;;15.35;;
68097;SDS011;54886;47.036;15.466;2022-11-15T15:37:37;27.70;;;16.50;;
68097;SDS011;54886;47.036;15.466;2022-11-15T15:40:03;29.10;;;16.67;;
68097;SDS011;54886;47.036;15.466;2022-11-15T15:42:35;28.27;;;16.15;;
68097;SDS011;54886;47.036;15.466;2022-11-15T15:45:00;28.88;;;17.08;;
68097;SDS011;54886;47.036;15.466;2022-11-15T15:47:25;26.58;;;15.73;;
68097;SDS011;54886;47.036;15.466;2022-11-15T15:49:51;27.10;;;16.02;;
68097;SDS011;54886;47.036;15.466;2022-11-15T15:52:16;25.30;;;15.13;;
68097;SDS011;54886;47.036;15.466;2022-11-15T15:54:42;25.40;;;15.00;;
68097;SDS011;54886;47.036;15.466;2022-11-15T15:57:08;23.73;;;14.52;;
68097;SDS011;54886;47.036;15.466;2022-11-15T15:59:37;25.20;;;14.95;;
68097;SDS011;54886;47.036;15.466;2022-11-15T16:02:02;26.85;;;15.48;;
68097;SDS011;54886;47.036;15.466;2022-11-15T16:04:28;25.98;;;15.20;;
68097;SDS011;54886;47.036;15.466;2022-11-15T16:06:57;25.90;;;14.82;;
68097;SDS011;54886;47.036;15.466;2022-11-15T16:09:24;26.10;;;15.05;;
68097;SDS011;54886;47.036;15.466;2022-11-15T16:12:08;24.50;;;13.75;;
68097;SDS011;54886;47.036;15.466;2022-11-15T16:14:33;26.33;;;15.20;;
68097;SDS011;54886;47.036;15.466;2022-11-15T16:16:59;26.63;;;14.55;;
68097;SDS011;54886;47.036;15.466;2022-11-15T16:19:24;26.60;;;14.57;;
68097;SDS011;54886;47.036;15.466;2022-11-15T16:21:50;25.30;;;14.38;;
68097;SDS011;54886;47.036;15.466;2022-11-15T16:24:17;23.60;;;14.45;;
68097;SDS011;54886;47.036;15.466;2022-11-15T16:26:42;26.52;;;13.80;;
68097;SDS011;54886;47.036;15.466;2022-11-15T16:29:08;23.45;;;13.85;;
68097;SDS011;54886;47.036;15.466;2022-11-15T16:31:35;25.77;;;14.52;;
68097;SDS011;54886;47.036;15.466;2022-11-15T16:34:00;25.23;;;14.43;;